KGCY/GCY METAR and TAF weather

Enter ICAO airport designator
Station Type Date Time Source
KGCY METAR 2019/12/07 04:55 UTC NOAA

KGCY 070455Z AUTO 00000KT 10SM OVC041 07/01 A3020 RMK A01


Station Type Date Time Source
KGCY Decoded METAR 2019/12/07 04:55 UTC NOAA

Station name not available
Dec 06, 2019 - 11:55 PM EST / 2019.12.07 0455 UTC
Wind: Calm:0
Visibility: 10 mile(s):0
Sky conditions: overcast
Temperature: 44 F (7 C)
Dew Point: 33 F (1 C)
Relative Humidity: 65%
Pressure (altimeter): 30.2 in. Hg (1022 hPa)
ob: KGCY 070455Z AUTO 00000KT 10SM OVC041 07/01 A3020 RMK A01
cycle: 5

Station Type Date Time Source
KGCY TAF UTC NOAA

Error!

Example: see airport list